sensor_id;sensor_type;location;lat;lon;timestamp;temperature;humidity
16247;DHT22;8231;50.866;7.944;2023-01-28T00:01:16;1.80;99.90
16247;DHT22;8231;50.866;7.944;2023-01-28T00:03:48;1.80;99.90
16247;DHT22;8231;50.866;7.944;2023-01-28T00:06:17;1.80;99.90
16247;DHT22;8231;50.866;7.944;2023-01-28T00:08:45;1.80;99.90
16247;DHT22;8231;50.866;7.944;2023-01-28T00:11:14;1.80;99.90
16247;DHT22;8231;50.866;7.944;2023-01-28T00:13:43;1.90;99.90
16247;DHT22;8231;50.866;7.944;2023-01-28T00:16:12;1.90;99.90
16247;DHT22;8231;50.866;7.944;2023-01-28T00:18:41;1.80;99.90
16247;DHT22;8231;50.866;7.944;2023-01-28T00:21:11;1.80;99.90
16247;DHT22;8231;50.866;7.944;2023-01-28T00:23:41;1.80;99.90
16247;DHT22;8231;50.866;7.944;2023-01-28T00:26:12;1.80;99.90
16247;DHT22;8231;50.866;7.944;2023-01-28T00:28:43;1.70;99.90
16247;DHT22;8231;50.866;7.944;2023-01-28T00:31:15;1.70;99.90
16247;DHT22;8231;50.866;7.944;2023-01-28T00:33:44;1.70;99.90
16247;DHT22;8231;50.866;7.944;2023-01-28T00:36:12;1.70;99.90
16247;DHT22;8231;50.866;7.944;2023-01-28T00:38:41;1.70;99.90
16247;DHT22;8231;50.866;7.944;2023-01-28T00:41:15;1.60;99.90
16247;DHT22;8231;50.866;7.944;2023-01-28T00:43:43;1.60;99.90
16247;DHT22;8231;50.866;7.944;2023-01-28T00:46:13;1.60;99.90
16247;DHT22;8231;50.866;7.944;2023-01-28T00:48:42;1.60;99.90
16247;DHT22;8231;50.866;7.944;2023-01-28T00:51:13;1.70;99.90
16247;DHT22;8231;50.866;7.944;2023-01-28T00:53:43;1.70;99.90
16247;DHT22;8231;50.866;7.944;2023-01-28T00:56:13;1.60;99.90
16247;DHT22;8231;50.866;7.944;2023-01-28T00:58:41;1.70;99.90
16247;DHT22;8231;50.866;7.944;2023-01-28T01:01:13;1.70;99.90
16247;DHT22;8231;50.866;7.944;2023-01-28T01:03:43;1.70;99.90
16247;DHT22;8231;50.866;7.944;2023-01-28T01:06:13;1.60;99.90
16247;DHT22;8231;50.866;7.944;2023-01-28T01:08:42;1.60;99.90
16247;DHT22;8231;50.866;7.944;2023-01-28T01:11:17;1.60;99.90
16247;DHT22;8231;50.866;7.944;2023-01-28T01:13:49;1.60;99.90
16247;DHT22;8231;50.866;7.944;2023-01-28T01:16:19;1.60;99.90
16247;DHT22;8231;50.866;7.944;2023-01-28T01:18:49;1.70;99.90
16247;DHT22;8231;50.866;7.944;2023-01-28T01:21:20;1.60;99.90
16247;DHT22;8231;50.866;7.944;2023-01-28T01:23:49;1.60;99.90
16247;DHT22;8231;50.866;7.944;2023-01-28T01:26:18;1.60;99.90
16247;DHT22;8231;50.866;7.944;2023-01-28T01:28:46;1.60;99.90
16247;DHT22;8231;50.866;7.944;2023-01-28T01:31:16;1.60;99.90
16247;DHT22;8231;50.866;7.944;2023-01-28T01:33:48;1.60;99.90
16247;DHT22;8231;50.866;7.944;2023-01-28T01:36:17;1.60;99.90
16247;DHT22;8231;50.866;7.944;2023-01-28T01:38:46;1.60;99.90
16247;DHT22;8231;50.866;7.944;2023-01-28T01:41:23;1.50;99.90
16247;DHT22;8231;50.866;7.944;2023-01-28T01:43:54;1.60;99.90
16247;DHT22;8231;50.866;7.944;2023-01-28T01:46:28;1.50;99.90
16247;DHT22;8231;50.866;7.944;2023-01-28T01:49:05;1.60;99.90
16247;DHT22;8231;50.866;7.944;2023-01-28T01:51:34;1.60;99.90
16247;DHT22;8231;50.866;7.944;2023-01-28T01:54:04;1.60;99.90
16247;DHT22;8231;50.866;7.944;2023-01-28T01:56:35;1.70;99.90
16247;DHT22;8231;50.866;7.944;2023-01-28T01:59:09;1.70;99.90
16247;DHT22;8231;50.866;7.944;2023-01-28T02:01:38;1.70;99.90
16247;DHT22;8231;50.866;7.944;2023-01-28T02:04:11;1.60;99.90
16247;DHT22;8231;50.866;7.944;2023-01-28T02:06:45;1.60;99.90
16247;DHT22;8231;50.866;7.944;2023-01-28T02:09:22;1.50;99.90
16247;DHT22;8231;50.866;7.944;2023-01-28T02:11:52;1.50;99.90
16247;DHT22;8231;50.866;7.944;2023-01-28T02:14:25;1.40;99.90
16247;DHT22;8231;50.866;7.944;2023-01-28T02:16:59;1.40;99.90
16247;DHT22;8231;50.866;7.944;2023-01-28T02:19:35;1.40;99.90
16247;DHT22;8231;50.866;7.944;2023-01-28T02:22:14;1.40;99.90
16247;DHT22;8231;50.866;7.944;2023-01-28T02:25:08;1.40;99.90
16247;DHT22;8231;50.866;7.944;2023-01-28T02:27:56;1.40;99.90
16247;DHT22;8231;50.866;7.944;2023-01-28T02:30:32;1.40;99.90
16247;DHT22;8231;50.866;7.944;2023-01-28T02:33:04;1.40;99.90
16247;DHT22;8231;50.866;7.944;2023-01-28T02:35:38;1.30;99.90
16247;DHT22;8231;50.866;7.944;2023-01-28T02:38:11;1.30;99.90
16247;DHT22;8231;50.866;7.944;2023-01-28T02:40:45;1.20;99.90
16247;DHT22;8231;50.866;7.944;2023-01-28T02:43:32;1.30;99.90
16247;DHT22;8231;50.866;7.944;2023-01-28T02:46:11;1.20;99.90
16247;DHT22;8231;50.866;7.944;2023-01-28T02:48:57;1.20;99.90
16247;DHT22;8231;50.866;7.944;2023-01-28T02:51:34;1.10;99.90
16247;DHT22;8231;50.866;7.944;2023-01-28T02:54:13;1.10;99.90
16247;DHT22;8231;50.866;7.944;2023-01-28T02:56:48;1.10;99.90
16247;DHT22;8231;50.866;7.944;2023-01-28T02:59:25;1.10;99.90
16247;DHT22;8231;50.866;7.944;2023-01-28T03:02:03;1.10;99.90
16247;DHT22;8231;50.866;7.944;2023-01-28T03:04:39;1.10;99.90
16247;DHT22;8231;50.866;7.944;2023-01-28T03:07:09;1.10;99.90
16247;DHT22;8231;50.866;7.944;2023-01-28T03:09:39;1.10;99.90
16247;DHT22;8231;50.866;7.944;2023-01-28T03:12:10;1.00;99.90
16247;DHT22;8231;50.866;7.944;2023-01-28T03:15:03;0.90;99.90
16247;DHT22;8231;50.866;7.944;2023-01-28T03:17:54;0.90;99.90
16247;DHT22;8231;50.866;7.944;2023-01-28T03:20:50;0.90;99.90
16247;DHT22;8231;50.866;7.944;2023-01-28T03:23:47;1.00;99.90
16247;DHT22;8231;50.866;7.944;2023-01-28T03:26:42;0.90;99.90
16247;DHT22;8231;50.866;7.944;2023-01-28T03:29:31;0.90;99.90
16247;DHT22;8231;50.866;7.944;2023-01-28T03:32:22;0.90;99.90
16247;DHT22;8231;50.866;7.944;2023-01-28T03:35:09;0.90;99.90
16247;DHT22;8231;50.866;7.944;2023-01-28T03:37:58;0.90;99.90
16247;DHT22;8231;50.866;7.944;2023-01-28T03:40:27;0.90;99.90
16247;DHT22;8231;50.866;7.944;2023-01-28T03:42:56;0.90;99.90
16247;DHT22;8231;50.866;7.944;2023-01-28T03:45:33;0.90;99.90
16247;DHT22;8231;50.866;7.944;2023-01-28T03:48:05;0.90;99.90
16247;DHT22;8231;50.866;7.944;2023-01-28T03:50:34;0.90;99.90
16247;DHT22;8231;50.866;7.944;2023-01-28T03:53:02;0.90;99.90
16247;DHT22;8231;50.866;7.944;2023-01-28T03:55:51;0.90;99.90
16247;DHT22;8231;50.866;7.944;2023-01-28T03:58:20;0.90;99.90
16247;DHT22;8231;50.866;7.944;2023-01-28T04:00:50;0.90;99.90
16247;DHT22;8231;50.866;7.944;2023-01-28T04:03:20;0.90;99.90
16247;DHT22;8231;50.866;7.944;2023-01-28T04:05:58;0.90;99.90
16247;DHT22;8231;50.866;7.944;2023-01-28T04:08:39;0.90;99.90
16247;DHT22;8231;50.866;7.944;2023-01-28T04:11:30;0.80;99.90
16247;DHT22;8231;50.866;7.944;2023-01-28T04:14:01;0.80;99.90
16247;DHT22;8231;50.866;7.944;2023-01-28T04:16:52;0.80;99.90
16247;DHT22;8231;50.866;7.944;2023-01-28T04:19:25;0.80;99.90
16247;DHT22;8231;50.866;7.944;2023-01-28T04:21:55;0.80;99.90
16247;DHT22;8231;50.866;7.944;2023-01-28T04:24:24;0.80;99.90
16247;DHT22;8231;50.866;7.944;2023-01-28T04:26:53;0.80;99.90
16247;DHT22;8231;50.866;7.944;2023-01-28T04:29:22;0.70;99.90
16247;DHT22;8231;50.866;7.944;2023-01-28T04:31:53;0.80;99.90
16247;DHT22;8231;50.866;7.944;2023-01-28T04:35:02;0.80;99.90
16247;DHT22;8231;50.866;7.944;2023-01-28T04:37:48;0.80;99.90
16247;DHT22;8231;50.866;7.944;2023-01-28T04:40:40;0.80;99.90
16247;DHT22;8231;50.866;7.944;2023-01-28T04:43:11;0.80;99.90
16247;DHT22;8231;50.866;7.944;2023-01-28T04:45:49;0.70;99.90
16247;DHT22;8231;50.866;7.944;2023-01-28T04:48:38;0.80;99.90
16247;DHT22;8231;50.866;7.944;2023-01-28T04:51:39;0.80;99.90
16247;DHT22;8231;50.866;7.944;2023-01-28T04:54:30;0.70;99.90
16247;DHT22;8231;50.866;7.944;2023-01-28T04:57:00;0.70;99.90
16247;DHT22;8231;50.866;7.944;2023-01-28T04:59:30;0.70;99.90
16247;DHT22;8231;50.866;7.944;2023-01-28T05:01:58;0.80;99.90
16247;DHT22;8231;50.866;7.944;2023-01-28T05:04:26;0.70;99.90
16247;DHT22;8231;50.866;7.944;2023-01-28T05:06:56;0.80;99.90
16247;DHT22;8231;50.866;7.944;2023-01-28T05:09:30;0.70;99.90
16247;DHT22;8231;50.866;7.944;2023-01-28T05:11:58;0.70;99.90
16247;DHT22;8231;50.866;7.944;2023-01-28T05:14:29;0.70;99.90
16247;DHT22;8231;50.866;7.944;2023-01-28T05:17:05;0.70;99.90
16247;DHT22;8231;50.866;7.944;2023-01-28T05:19:34;0.70;99.90
16247;DHT22;8231;50.866;7.944;2023-01-28T05:22:05;0.60;99.90
16247;DHT22;8231;50.866;7.944;2023-01-28T05:24:41;0.60;99.90
16247;DHT22;8231;50.866;7.944;2023-01-28T05:27:09;0.60;99.90
16247;DHT22;8231;50.866;7.944;2023-01-28T05:29:37;0.60;99.90
16247;DHT22;8231;50.866;7.944;2023-01-28T05:32:06;0.70;99.90
16247;DHT22;8231;50.866;7.944;2023-01-28T05:34:35;0.70;99.90
16247;DHT22;8231;50.866;7.944;2023-01-28T05:37:10;0.70;99.90
16247;DHT22;8231;50.866;7.944;2023-01-28T05:39:38;0.60;99.90
16247;DHT22;8231;50.866;7.944;2023-01-28T05:42:06;0.60;99.90
16247;DHT22;8231;50.866;7.944;2023-01-28T05:44:40;0.60;99.90
16247;DHT22;8231;50.866;7.944;2023-01-28T05:47:27;0.60;99.90
16247;DHT22;8231;50.866;7.944;2023-01-28T05:50:04;0.60;99.90
16247;DHT22;8231;50.866;7.944;2023-01-28T05:52:34;0.60;99.90
16247;DHT22;8231;50.866;7.944;2023-01-28T05:55:03;0.50;99.90
16247;DHT22;8231;50.866;7.944;2023-01-28T05:57:33;0.50;99.90
16247;DHT22;8231;50.866;7.944;2023-01-28T06:00:02;0.50;99.90
16247;DHT22;8231;50.866;7.944;2023-01-28T06:02:40;0.60;99.90
16247;DHT22;8231;50.866;7.944;2023-01-28T06:05:11;0.60;99.90
16247;DHT22;8231;50.866;7.944;2023-01-28T06:07:43;0.50;99.90
16247;DHT22;8231;50.866;7.944;2023-01-28T06:10:12;0.50;99.90
16247;DHT22;8231;50.866;7.944;2023-01-28T06:12:41;0.60;99.90
16247;DHT22;8231;50.866;7.944;2023-01-28T06:15:28;0.50;99.90
16247;DHT22;8231;50.866;7.944;2023-01-28T06:18:01;0.50;99.90
16247;DHT22;8231;50.866;7.944;2023-01-28T06:20:33;0.50;99.90
16247;DHT22;8231;50.866;7.944;2023-01-28T06:23:02;0.50;99.90
16247;DHT22;8231;50.866;7.944;2023-01-28T06:25:31;0.50;99.90
16247;DHT22;8231;50.866;7.944;2023-01-28T06:28:05;0.50;99.90
16247;DHT22;8231;50.866;7.944;2023-01-28T06:30:33;0.50;99.90
16247;DHT22;8231;50.866;7.944;2023-01-28T06:33:01;0.50;99.90
16247;DHT22;8231;50.866;7.944;2023-01-28T06:35:29;0.50;99.90
16247;DHT22;8231;50.866;7.944;2023-01-28T06:37:57;0.50;99.90
16247;DHT22;8231;50.866;7.944;2023-01-28T06:40:26;0.50;99.90
16247;DHT22;8231;50.866;7.944;2023-01-28T06:42:54;0.50;99.90
16247;DHT22;8231;50.866;7.944;2023-01-28T06:45:22;0.50;99.90
16247;DHT22;8231;50.866;7.944;2023-01-28T06:47:51;0.50;99.90
16247;DHT22;8231;50.866;7.944;2023-01-28T06:50:19;0.50;99.90
16247;DHT22;8231;50.866;7.944;2023-01-28T06:52:47;0.50;99.90
16247;DHT22;8231;50.866;7.944;2023-01-28T06:55:15;0.40;99.90
16247;DHT22;8231;50.866;7.944;2023-01-28T06:57:45;0.40;99.90
16247;DHT22;8231;50.866;7.944;2023-01-28T07:00:13;0.40;99.90
16247;DHT22;8231;50.866;7.944;2023-01-28T07:02:43;0.40;99.90
16247;DHT22;8231;50.866;7.944;2023-01-28T07:05:11;0.30;99.90
16247;DHT22;8231;50.866;7.944;2023-01-28T07:07:39;0.30;99.90
16247;DHT22;8231;50.866;7.944;2023-01-28T07:10:09;0.30;99.90
16247;DHT22;8231;50.866;7.944;2023-01-28T07:12:38;0.30;99.90
16247;DHT22;8231;50.866;7.944;2023-01-28T07:15:08;0.30;99.90
16247;DHT22;8231;50.866;7.944;2023-01-28T07:17:38;0.30;99.90
16247;DHT22;8231;50.866;7.944;2023-01-28T07:20:08;0.30;99.90
16247;DHT22;8231;50.866;7.944;2023-01-28T07:22:38;0.30;99.90
16247;DHT22;8231;50.866;7.944;2023-01-28T07:25:07;0.30;99.90
16247;DHT22;8231;50.866;7.944;2023-01-28T07:27:36;0.30;99.90
16247;DHT22;8231;50.866;7.944;2023-01-28T07:30:07;0.40;99.90
16247;DHT22;8231;50.866;7.944;2023-01-28T07:32:35;0.30;99.90
16247;DHT22;8231;50.866;7.944;2023-01-28T07:35:05;0.30;99.90
16247;DHT22;8231;50.866;7.944;2023-01-28T07:37:34;0.30;99.90
16247;DHT22;8231;50.866;7.944;2023-01-28T07:40:02;0.40;99.90
16247;DHT22;8231;50.866;7.944;2023-01-28T07:42:31;0.40;99.90
16247;DHT22;8231;50.866;7.944;2023-01-28T07:45:04;0.40;99.90
16247;DHT22;8231;50.866;7.944;2023-01-28T07:47:33;0.60;99.90
16247;DHT22;8231;50.866;7.944;2023-01-28T07:50:01;0.50;99.90
16247;DHT22;8231;50.866;7.944;2023-01-28T07:52:30;0.50;99.90
16247;DHT22;8231;50.866;7.944;2023-01-28T07:55:04;0.40;99.90
16247;DHT22;8231;50.866;7.944;2023-01-28T07:57:33;0.40;99.90
16247;DHT22;8231;50.866;7.944;2023-01-28T08:00:00;0.50;99.90
16247;DHT22;8231;50.866;7.944;2023-01-28T08:02:39;0.40;99.90
16247;DHT22;8231;50.866;7.944;2023-01-28T08:05:08;0.40;99.90
16247;DHT22;8231;50.866;7.944;2023-01-28T08:07:36;0.40;99.90
16247;DHT22;8231;50.866;7.944;2023-01-28T08:10:05;0.40;99.90
16247;DHT22;8231;50.866;7.944;2023-01-28T08:12:33;0.40;99.90
16247;DHT22;8231;50.866;7.944;2023-01-28T08:15:01;0.30;99.90
16247;DHT22;8231;50.866;7.944;2023-01-28T08:17:31;0.30;99.90
16247;DHT22;8231;50.866;7.944;2023-01-28T08:20:01;0.30;99.90
16247;DHT22;8231;50.866;7.944;2023-01-28T08:22:29;0.30;99.90
16247;DHT22;8231;50.866;7.944;2023-01-28T08:24:57;0.40;99.90
16247;DHT22;8231;50.866;7.944;2023-01-28T08:27:25;0.40;99.90
16247;DHT22;8231;50.866;7.944;2023-01-28T08:29:53;0.50;99.90
16247;DHT22;8231;50.866;7.944;2023-01-28T08:32:21;0.40;99.90
16247;DHT22;8231;50.866;7.944;2023-01-28T08:34:49;0.50;99.90
16247;DHT22;8231;50.866;7.944;2023-01-28T08:37:19;0.40;99.90
16247;DHT22;8231;50.866;7.944;2023-01-28T08:39:47;0.40;99.90
16247;DHT22;8231;50.866;7.944;2023-01-28T08:42:16;0.40;99.90
16247;DHT22;8231;50.866;7.944;2023-01-28T08:44:44;0.30;99.90
16247;DHT22;8231;50.866;7.944;2023-01-28T08:47:14;0.40;99.90
16247;DHT22;8231;50.866;7.944;2023-01-28T08:49:42;0.50;99.90
16247;DHT22;8231;50.866;7.944;2023-01-28T08:52:10;0.50;99.90
16247;DHT22;8231;50.866;7.944;2023-01-28T08:54:39;0.50;99.90
16247;DHT22;8231;50.866;7.944;2023-01-28T08:57:07;0.60;99.90
16247;DHT22;8231;50.866;7.944;2023-01-28T08:59:35;0.60;99.90
16247;DHT22;8231;50.866;7.944;2023-01-28T09:02:07;0.70;99.90
16247;DHT22;8231;50.866;7.944;2023-01-28T09:04:55;0.80;99.90
16247;DHT22;8231;50.866;7.944;2023-01-28T09:07:23;0.80;99.90
16247;DHT22;8231;50.866;7.944;2023-01-28T09:09:53;0.80;99.90
16247;DHT22;8231;50.866;7.944;2023-01-28T09:12:21;0.80;99.90
16247;DHT22;8231;50.866;7.944;2023-01-28T09:14:49;0.90;99.90
16247;DHT22;8231;50.866;7.944;2023-01-28T09:17:18;0.90;99.90
16247;DHT22;8231;50.866;7.944;2023-01-28T09:19:46;1.00;99.90
16247;DHT22;8231;50.866;7.944;2023-01-28T09:22:14;1.00;99.90
16247;DHT22;8231;50.866;7.944;2023-01-28T09:24:43;0.90;99.90
16247;DHT22;8231;50.866;7.944;2023-01-28T09:27:12;0.90;99.90
16247;DHT22;8231;50.866;7.944;2023-01-28T09:29:40;1.00;99.90
16247;DHT22;8231;50.866;7.944;2023-01-28T09:32:08;0.90;99.90
16247;DHT22;8231;50.866;7.944;2023-01-28T09:34:37;0.90;99.90
16247;DHT22;8231;50.866;7.944;2023-01-28T09:37:05;0.80;99.90
16247;DHT22;8231;50.866;7.944;2023-01-28T09:39:33;0.80;99.90
16247;DHT22;8231;50.866;7.944;2023-01-28T09:42:18;0.70;99.90
16247;DHT22;8231;50.866;7.944;2023-01-28T09:45:00;0.70;99.90
16247;DHT22;8231;50.866;7.944;2023-01-28T09:47:34;0.70;99.90
16247;DHT22;8231;50.866;7.944;2023-01-28T09:50:07;0.80;99.90
16247;DHT22;8231;50.866;7.944;2023-01-28T09:52:40;0.90;99.90
16247;DHT22;8231;50.866;7.944;2023-01-28T09:55:18;0.90;99.90
16247;DHT22;8231;50.866;7.944;2023-01-28T09:57:52;1.00;99.90
16247;DHT22;8231;50.866;7.944;2023-01-28T10:00:23;1.00;99.90
16247;DHT22;8231;50.866;7.944;2023-01-28T10:03:06;1.00;99.90
16247;DHT22;8231;50.866;7.944;2023-01-28T10:05:48;0.90;99.90
16247;DHT22;8231;50.866;7.944;2023-01-28T10:08:29;0.90;99.90
16247;DHT22;8231;50.866;7.944;2023-01-28T10:11:10;0.90;99.90
16247;DHT22;8231;50.866;7.944;2023-01-28T10:13:45;0.80;99.90
16247;DHT22;8231;50.866;7.944;2023-01-28T10:16:22;0.90;99.90
16247;DHT22;8231;50.866;7.944;2023-01-28T10:18:55;1.00;99.90
16247;DHT22;8231;50.866;7.944;2023-01-28T10:21:28;1.10;99.90
16247;DHT22;8231;50.866;7.944;2023-01-28T10:24:02;1.10;99.90
16247;DHT22;8231;50.866;7.944;2023-01-28T10:26:34;1.20;99.90
16247;DHT22;8231;50.866;7.944;2023-01-28T10:29:12;1.30;99.90
16247;DHT22;8231;50.866;7.944;2023-01-28T10:31:49;1.20;99.90
16247;DHT22;8231;50.866;7.944;2023-01-28T10:34:19;1.30;99.90
16247;DHT22;8231;50.866;7.944;2023-01-28T10:36:47;1.40;99.90
16247;DHT22;8231;50.866;7.944;2023-01-28T10:39:18;1.40;99.90
16247;DHT22;8231;50.866;7.944;2023-01-28T10:41:47;1.40;99.90
16247;DHT22;8231;50.866;7.944;2023-01-28T10:44:31;1.40;99.90
16247;DHT22;8231;50.866;7.944;2023-01-28T10:47:05;1.30;99.90
16247;DHT22;8231;50.866;7.944;2023-01-28T10:49:42;1.30;99.90
16247;DHT22;8231;50.866;7.944;2023-01-28T10:52:12;1.20;99.90
16247;DHT22;8231;50.866;7.944;2023-01-28T10:54:40;1.10;99.90
16247;DHT22;8231;50.866;7.944;2023-01-28T10:57:11;1.10;99.90
16247;DHT22;8231;50.866;7.944;2023-01-28T10:59:41;1.10;99.90
16247;DHT22;8231;50.866;7.944;2023-01-28T11:02:25;1.10;99.90
16247;DHT22;8231;50.866;7.944;2023-01-28T11:05:01;1.10;99.90
16247;DHT22;8231;50.866;7.944;2023-01-28T11:07:30;1.10;99.90
16247;DHT22;8231;50.866;7.944;2023-01-28T11:09:58;1.00;99.90
16247;DHT22;8231;50.866;7.944;2023-01-28T11:12:27;1.00;99.90
16247;DHT22;8231;50.866;7.944;2023-01-28T11:14:59;0.90;99.90
16247;DHT22;8231;50.866;7.944;2023-01-28T11:17:31;0.90;99.90
16247;DHT22;8231;50.866;7.944;2023-01-28T11:20:09;0.80;99.90
16247;DHT22;8231;50.866;7.944;2023-01-28T11:22:41;0.80;99.90
16247;DHT22;8231;50.866;7.944;2023-01-28T11:25:17;0.80;99.90
16247;DHT22;8231;50.866;7.944;2023-01-28T11:27:47;0.80;99.90
16247;DHT22;8231;50.866;7.944;2023-01-28T11:30:20;0.80;99.90
16247;DHT22;8231;50.866;7.944;2023-01-28T11:32:56;0.80;99.90
16247;DHT22;8231;50.866;7.944;2023-01-28T11:35:27;0.90;99.90
16247;DHT22;8231;50.866;7.944;2023-01-28T11:37:57;0.90;99.90
16247;DHT22;8231;50.866;7.944;2023-01-28T11:40:26;0.90;99.90
16247;DHT22;8231;50.866;7.944;2023-01-28T11:42:55;0.90;99.90
16247;DHT22;8231;50.866;7.944;2023-01-28T11:45:47;1.00;99.90
16247;DHT22;8231;50.866;7.944;2023-01-28T11:48:24;0.90;99.90
16247;DHT22;8231;50.866;7.944;2023-01-28T11:50:59;1.00;99.90
16247;DHT22;8231;50.866;7.944;2023-01-28T11:53:45;1.00;99.90
16247;DHT22;8231;50.866;7.944;2023-01-28T11:56:26;1.00;99.90
16247;DHT22;8231;50.866;7.944;2023-01-28T11:59:09;1.00;99.90
16247;DHT22;8231;50.866;7.944;2023-01-28T12:01:46;0.90;99.90
16247;DHT22;8231;50.866;7.944;2023-01-28T12:04:22;1.00;99.90
16247;DHT22;8231;50.866;7.944;2023-01-28T12:07:06;1.10;99.90
16247;DHT22;8231;50.866;7.944;2023-01-28T12:09:44;1.10;99.90
16247;DHT22;8231;50.866;7.944;2023-01-28T12:12:39;1.10;99.90
16247;DHT22;8231;50.866;7.944;2023-01-28T12:18:36;1.00;99.90
16247;DHT22;8231;50.866;7.944;2023-01-28T12:21:06;1.00;99.90
16247;DHT22;8231;50.866;7.944;2023-01-28T12:23:57;1.00;99.90
16247;DHT22;8231;50.866;7.944;2023-01-28T12:26:38;1.00;99.90
16247;DHT22;8231;50.866;7.944;2023-01-28T12:29:17;1.10;99.90
16247;DHT22;8231;50.866;7.944;2023-01-28T12:32:01;1.20;99.90
16247;DHT22;8231;50.866;7.944;2023-01-28T12:35:09;1.20;99.90
16247;DHT22;8231;50.866;7.944;2023-01-28T12:37:57;1.20;99.90
16247;DHT22;8231;50.866;7.944;2023-01-28T12:40:45;1.20;99.90
16247;DHT22;8231;50.866;7.944;2023-01-28T12:43:19;1.10;99.90
16247;DHT22;8231;50.866;7.944;2023-01-28T12:45:52;1.10;99.90
16247;DHT22;8231;50.866;7.944;2023-01-28T12:48:28;1.00;99.90
16247;DHT22;8231;50.866;7.944;2023-01-28T12:51:03;1.00;99.90
16247;DHT22;8231;50.866;7.944;2023-01-28T12:53:37;0.90;99.90
16247;DHT22;8231;50.866;7.944;2023-01-28T12:56:09;0.90;99.90
16247;DHT22;8231;50.866;7.944;2023-01-28T12:58:46;0.90;99.90
16247;DHT22;8231;50.866;7.944;2023-01-28T13:01:18;1.00;99.90
16247;DHT22;8231;50.866;7.944;2023-01-28T13:03:52;1.00;99.90
16247;DHT22;8231;50.866;7.944;2023-01-28T13:06:26;0.90;99.90
16247;DHT22;8231;50.866;7.944;2023-01-28T13:08:59;0.90;99.90
16247;DHT22;8231;50.866;7.944;2023-01-28T13:11:33;1.00;99.90
16247;DHT22;8231;50.866;7.944;2023-01-28T13:14:02;1.10;99.90
16247;DHT22;8231;50.866;7.944;2023-01-28T13:16:32;1.10;99.90
16247;DHT22;8231;50.866;7.944;2023-01-28T13:19:06;1.00;99.90
16247;DHT22;8231;50.866;7.944;2023-01-28T13:21:36;1.00;99.90
16247;DHT22;8231;50.866;7.944;2023-01-28T13:24:29;1.10;99.90
16247;DHT22;8231;50.866;7.944;2023-01-28T13:27:11;1.10;99.90
16247;DHT22;8231;50.866;7.944;2023-01-28T13:29:40;1.20;99.90
16247;DHT22;8231;50.866;7.944;2023-01-28T13:32:28;1.10;99.90
16247;DHT22;8231;50.866;7.944;2023-01-28T13:34:58;1.10;99.90
16247;DHT22;8231;50.866;7.944;2023-01-28T13:37:31;1.00;99.90
16247;DHT22;8231;50.866;7.944;2023-01-28T13:40:05;1.00;99.90
16247;DHT22;8231;50.866;7.944;2023-01-28T13:42:36;1.10;99.90
16247;DHT22;8231;50.866;7.944;2023-01-28T13:45:21;1.00;99.90
16247;DHT22;8231;50.866;7.944;2023-01-28T13:47:52;1.10;99.90
16247;DHT22;8231;50.866;7.944;2023-01-28T13:50:23;1.20;99.90
16247;DHT22;8231;50.866;7.944;2023-01-28T13:52:57;1.10;99.90
16247;DHT22;8231;50.866;7.944;2023-01-28T13:55:30;1.10;99.90
16247;DHT22;8231;50.866;7.944;2023-01-28T14:01:28;1.30;99.90
16247;DHT22;8231;50.866;7.944;2023-01-28T14:04:34;1.50;99.90
16247;DHT22;8231;50.866;7.944;2023-01-28T14:10:32;1.40;99.90
16247;DHT22;8231;50.866;7.944;2023-01-28T14:16:00;1.50;99.90
16247;DHT22;8231;50.866;7.944;2023-01-28T14:18:34;1.60;99.90
16247;DHT22;8231;50.866;7.944;2023-01-28T14:21:10;1.70;99.90
16247;DHT22;8231;50.866;7.944;2023-01-28T14:23:44;2.10;99.90
16247;DHT22;8231;50.866;7.944;2023-01-28T14:26:33;3.20;99.90
16247;DHT22;8231;50.866;7.944;2023-01-28T14:29:13;4.20;99.90
16247;DHT22;8231;50.866;7.944;2023-01-28T14:31:43;4.30;99.90
16247;DHT22;8231;50.866;7.944;2023-01-28T14:34:20;4.60;99.90
16247;DHT22;8231;50.866;7.944;2023-01-28T14:36:50;6.10;99.90
16247;DHT22;8231;50.866;7.944;2023-01-28T14:39:24;6.90;99.90
16247;DHT22;8231;50.866;7.944;2023-01-28T14:41:58;6.80;99.90
16247;DHT22;8231;50.866;7.944;2023-01-28T14:44:31;6.00;99.90
16247;DHT22;8231;50.866;7.944;2023-01-28T14:47:19;5.20;99.90
16247;DHT22;8231;50.866;7.944;2023-01-28T14:50:02;4.50;99.90
16247;DHT22;8231;50.866;7.944;2023-01-28T14:52:48;3.90;99.90
16247;DHT22;8231;50.866;7.944;2023-01-28T14:55:29;3.40;99.90
16247;DHT22;8231;50.866;7.944;2023-01-28T14:58:03;3.10;99.90
16247;DHT22;8231;50.866;7.944;2023-01-28T15:00:33;2.80;99.90
16247;DHT22;8231;50.866;7.944;2023-01-28T15:03:08;2.50;99.90
16247;DHT22;8231;50.866;7.944;2023-01-28T15:06:01;2.30;99.90
16247;DHT22;8231;50.866;7.944;2023-01-28T15:08:29;2.20;99.90
16247;DHT22;8231;50.866;7.944;2023-01-28T15:10:59;2.10;99.90
16247;DHT22;8231;50.866;7.944;2023-01-28T15:13:32;2.10;99.90
16247;DHT22;8231;50.866;7.944;2023-01-28T15:16:04;2.00;99.90
16247;DHT22;8231;50.866;7.944;2023-01-28T15:18:37;1.90;99.90
16247;DHT22;8231;50.866;7.944;2023-01-28T15:21:08;1.90;99.90
16247;DHT22;8231;50.866;7.944;2023-01-28T15:23:38;1.80;99.90
16247;DHT22;8231;50.866;7.944;2023-01-28T15:26:10;1.80;99.90
16247;DHT22;8231;50.866;7.944;2023-01-28T15:28:44;1.80;99.90
16247;DHT22;8231;50.866;7.944;2023-01-28T15:31:19;1.70;99.90
16247;DHT22;8231;50.866;7.944;2023-01-28T15:33:59;1.60;99.90
16247;DHT22;8231;50.866;7.944;2023-01-28T15:36:28;1.50;99.90
16247;DHT22;8231;50.866;7.944;2023-01-28T15:38:57;1.40;99.90
16247;DHT22;8231;50.866;7.944;2023-01-28T15:41:28;1.30;99.90
16247;DHT22;8231;50.866;7.944;2023-01-28T15:44:01;1.10;99.90
16247;DHT22;8231;50.866;7.944;2023-01-28T15:46:29;1.10;99.90
16247;DHT22;8231;50.866;7.944;2023-01-28T15:48:59;1.00;99.90
16247;DHT22;8231;50.866;7.944;2023-01-28T15:51:29;1.00;99.90
16247;DHT22;8231;50.866;7.944;2023-01-28T15:54:02;0.90;99.90
16247;DHT22;8231;50.866;7.944;2023-01-28T15:56:32;0.90;99.90
16247;DHT22;8231;50.866;7.944;2023-01-28T15:59:15;0.80;99.90
16247;DHT22;8231;50.866;7.944;2023-01-28T16:01:44;0.70;99.90
16247;DHT22;8231;50.866;7.944;2023-01-28T16:04:22;0.50;99.90
16247;DHT22;8231;50.866;7.944;2023-01-28T16:06:50;0.20;99.90
16247;DHT22;8231;50.866;7.944;2023-01-28T16:09:22;0.10;99.90
16247;DHT22;8231;50.866;7.944;2023-01-28T16:11:51;-0.10;99.90
16247;DHT22;8231;50.866;7.944;2023-01-28T16:14:26;-0.30;99.90
16247;DHT22;8231;50.866;7.944;2023-01-28T16:16:56;-0.40;99.90
16247;DHT22;8231;50.866;7.944;2023-01-28T16:19:32;-0.50;99.90
16247;DHT22;8231;50.866;7.944;2023-01-28T16:22:01;-0.60;99.90
16247;DHT22;8231;50.866;7.944;2023-01-28T16:24:31;-0.70;99.90
16247;DHT22;8231;50.866;7.944;2023-01-28T16:27:04;-0.70;99.90
16247;DHT22;8231;50.866;7.944;2023-01-28T16:29:34;-0.80;99.90
16247;DHT22;8231;50.866;7.944;2023-01-28T16:32:02;-0.80;99.90
16247;DHT22;8231;50.866;7.944;2023-01-28T16:34:31;-0.90;99.90
16247;DHT22;8231;50.866;7.944;2023-01-28T16:36:59;-1.00;99.90
16247;DHT22;8231;50.866;7.944;2023-01-28T16:39:27;-1.10;99.90
16247;DHT22;8231;50.866;7.944;2023-01-28T16:41:57;-1.20;99.90
16247;DHT22;8231;50.866;7.944;2023-01-28T16:44:25;-1.30;99.90
16247;DHT22;8231;50.866;7.944;2023-01-28T16:46:55;-1.40;99.90
16247;DHT22;8231;50.866;7.944;2023-01-28T16:49:23;-1.50;99.90
16247;DHT22;8231;50.866;7.944;2023-01-28T16:51:51;-1.60;99.90
16247;DHT22;8231;50.866;7.944;2023-01-28T16:54:20;-1.60;99.90